Hensel, North Dakota
Current Conditions -  °F | °C
As of 6:15 PM on Wednesday 28 Jan 2015 (Local Time) from K2C8 Reporting Station
Overcast Overcast  
Wind Chill: 11°   Ceiling: 600
Heat Index: 25°   Visibility: 10mi
Dew Point: 23°   Wind: 17mph
Humidity: 93%   Direction: 330°NNW
Pressure: 29.96"   Gusts: 29mph
Location:  48.69°N, 97.67°W
Report Text: K2C8 290015Z AUTO 33015G25KT 10SM OVC006 M04/M05 A2996 RMK AO2
Loading
Personal Weather Stations






























Interactive Weather Map New forecast layout! Learn more

10-Day Weather Forecast

Advertisements
Track Severe Weather on mobile